sensor_id;sensor_type;location;lat;lon;timestamp;temperature;humidity
57264;DHT22;43113;53.124;6.092;2022-09-03T00:01:09;16.90;85.90
57264;DHT22;43113;53.124;6.092;2022-09-03T00:03:46;16.90;86.10
57264;DHT22;43113;53.124;6.092;2022-09-03T00:06:29;16.90;85.90
57264;DHT22;43113;53.124;6.092;2022-09-03T00:09:06;16.80;85.70
57264;DHT22;43113;53.124;6.092;2022-09-03T00:14:35;16.80;85.80
57264;DHT22;43113;53.124;6.092;2022-09-03T00:17:06;16.80;86.30
57264;DHT22;43113;53.124;6.092;2022-09-03T00:19:43;16.70;86.50
57264;DHT22;43113;53.124;6.092;2022-09-03T00:22:21;16.60;86.30
57264;DHT22;43113;53.124;6.092;2022-09-03T00:24:49;16.60;87.00
57264;DHT22;43113;53.124;6.092;2022-09-03T00:27:25;16.50;86.70
57264;DHT22;43113;53.124;6.092;2022-09-03T00:30:11;16.40;87.30
57264;DHT22;43113;53.124;6.092;2022-09-03T00:32:48;16.40;87.60
57264;DHT22;43113;53.124;6.092;2022-09-03T00:35:26;16.30;87.80
57264;DHT22;43113;53.124;6.092;2022-09-03T00:37:56;16.20;88.00
57264;DHT22;43113;53.124;6.092;2022-09-03T00:43:04;16.10;88.30
57264;DHT22;43113;53.124;6.092;2022-09-03T00:45:35;16.10;89.00
57264;DHT22;43113;53.124;6.092;2022-09-03T01:01:48;15.90;89.40
57264;DHT22;43113;53.124;6.092;2022-09-03T01:10:29;15.70;90.10
57264;DHT22;43113;53.124;6.092;2022-09-03T01:13:17;15.60;90.20
57264;DHT22;43113;53.124;6.092;2022-09-03T01:15:56;15.60;90.20
57264;DHT22;43113;53.124;6.092;2022-09-03T01:26:58;15.50;90.70
57264;DHT22;43113;53.124;6.092;2022-09-03T01:29:48;15.50;90.50
57264;DHT22;43113;53.124;6.092;2022-09-03T01:32:45;15.50;90.60
57264;DHT22;43113;53.124;6.092;2022-09-03T01:35:24;15.40;90.60
57264;DHT22;43113;53.124;6.092;2022-09-03T01:37:57;15.40;90.70
57264;DHT22;43113;53.124;6.092;2022-09-03T01:46:41;15.40;90.80
57264;DHT22;43113;53.124;6.092;2022-09-03T01:51:59;15.40;90.70
57264;DHT22;43113;53.124;6.092;2022-09-03T01:54:50;15.40;90.80
57264;DHT22;43113;53.124;6.092;2022-09-03T02:00:32;15.50;90.50
57264;DHT22;43113;53.124;6.092;2022-09-03T02:03:02;15.50;90.80
57264;DHT22;43113;53.124;6.092;2022-09-03T02:05:30;15.50;90.60
57264;DHT22;43113;53.124;6.092;2022-09-03T02:13:26;15.40;90.80
57264;DHT22;43113;53.124;6.092;2022-09-03T02:15:56;15.40;91.20
57264;DHT22;43113;53.124;6.092;2022-09-03T02:18:35;15.30;91.10
57264;DHT22;43113;53.124;6.092;2022-09-03T02:21:01;15.30;91.40
57264;DHT22;43113;53.124;6.092;2022-09-03T02:23:27;15.30;91.00
57264;DHT22;43113;53.124;6.092;2022-09-03T02:26:02;15.30;91.40
57264;DHT22;43113;53.124;6.092;2022-09-03T02:28:29;15.20;91.30
57264;DHT22;43113;53.124;6.092;2022-09-03T02:30:56;15.20;91.30
57264;DHT22;43113;53.124;6.092;2022-09-03T02:33:22;15.10;91.50
57264;DHT22;43113;53.124;6.092;2022-09-03T02:35:48;15.00;92.00
57264;DHT22;43113;53.124;6.092;2022-09-03T02:38:18;15.00;91.90
57264;DHT22;43113;53.124;6.092;2022-09-03T02:40:44;15.00;91.90
57264;DHT22;43113;53.124;6.092;2022-09-03T02:46:11;14.90;92.30
57264;DHT22;43113;53.124;6.092;2022-09-03T02:48:39;14.80;92.20
57264;DHT22;43113;53.124;6.092;2022-09-03T02:51:05;14.80;92.60
57264;DHT22;43113;53.124;6.092;2022-09-03T02:53:30;14.80;92.40
57264;DHT22;43113;53.124;6.092;2022-09-03T02:55:58;14.80;92.50
57264;DHT22;43113;53.124;6.092;2022-09-03T02:58:24;14.80;92.70
57264;DHT22;43113;53.124;6.092;2022-09-03T03:00:51;14.70;92.90
57264;DHT22;43113;53.124;6.092;2022-09-03T03:03:17;14.70;92.80
57264;DHT22;43113;53.124;6.092;2022-09-03T03:05:45;14.70;92.90
57264;DHT22;43113;53.124;6.092;2022-09-03T03:08:12;14.70;93.10
57264;DHT22;43113;53.124;6.092;2022-09-03T03:10:42;14.70;93.00
57264;DHT22;43113;53.124;6.092;2022-09-03T03:13:11;14.70;92.90
57264;DHT22;43113;53.124;6.092;2022-09-03T03:15:37;14.70;93.20
57264;DHT22;43113;53.124;6.092;2022-09-03T03:18:03;14.70;93.10
57264;DHT22;43113;53.124;6.092;2022-09-03T03:20:29;14.70;93.10
57264;DHT22;43113;53.124;6.092;2022-09-03T03:22:54;14.70;93.10
57264;DHT22;43113;53.124;6.092;2022-09-03T03:25:20;14.80;93.20
57264;DHT22;43113;53.124;6.092;2022-09-03T03:27:46;14.80;93.20
57264;DHT22;43113;53.124;6.092;2022-09-03T03:30:12;14.80;93.40
57264;DHT22;43113;53.124;6.092;2022-09-03T03:32:38;14.80;93.10
57264;DHT22;43113;53.124;6.092;2022-09-03T03:35:05;14.80;93.10
57264;DHT22;43113;53.124;6.092;2022-09-03T03:37:32;14.80;93.40
57264;DHT22;43113;53.124;6.092;2022-09-03T03:39:58;14.80;93.10
57264;DHT22;43113;53.124;6.092;2022-09-03T03:42:24;14.80;93.70
57264;DHT22;43113;53.124;6.092;2022-09-03T03:44:50;14.70;93.40
57264;DHT22;43113;53.124;6.092;2022-09-03T03:47:15;14.70;93.30
57264;DHT22;43113;53.124;6.092;2022-09-03T03:49:43;14.80;93.40
57264;DHT22;43113;53.124;6.092;2022-09-03T03:52:09;14.80;93.70
57264;DHT22;43113;53.124;6.092;2022-09-03T03:54:35;14.80;93.30
57264;DHT22;43113;53.124;6.092;2022-09-03T03:57:00;14.80;93.50
57264;DHT22;43113;53.124;6.092;2022-09-03T03:59:26;14.70;93.60
57264;DHT22;43113;53.124;6.092;2022-09-03T04:01:55;14.80;93.80
57264;DHT22;43113;53.124;6.092;2022-09-03T04:04:21;14.80;93.60
57264;DHT22;43113;53.124;6.092;2022-09-03T04:06:56;14.80;93.50
57264;DHT22;43113;53.124;6.092;2022-09-03T04:09:22;14.80;93.60
57264;DHT22;43113;53.124;6.092;2022-09-03T04:11:48;14.80;93.60
57264;DHT22;43113;53.124;6.092;2022-09-03T04:14:16;14.80;93.70
57264;DHT22;43113;53.124;6.092;2022-09-03T04:16:42;14.80;93.80
57264;DHT22;43113;53.124;6.092;2022-09-03T04:19:11;14.90;93.60
57264;DHT22;43113;53.124;6.092;2022-09-03T04:21:38;14.90;93.50
57264;DHT22;43113;53.124;6.092;2022-09-03T04:24:04;14.90;93.30
57264;DHT22;43113;53.124;6.092;2022-09-03T04:26:31;14.90;93.60
57264;DHT22;43113;53.124;6.092;2022-09-03T04:29:06;14.90;93.50
57264;DHT22;43113;53.124;6.092;2022-09-03T04:31:33;14.90;93.30
57264;DHT22;43113;53.124;6.092;2022-09-03T04:33:59;14.90;93.70
57264;DHT22;43113;53.124;6.092;2022-09-03T04:36:27;14.90;93.60
57264;DHT22;43113;53.124;6.092;2022-09-03T04:38:54;14.90;93.30
57264;DHT22;43113;53.124;6.092;2022-09-03T04:41:22;14.90;93.70
57264;DHT22;43113;53.124;6.092;2022-09-03T04:43:50;14.80;93.60
57264;DHT22;43113;53.124;6.092;2022-09-03T04:46:16;14.80;93.60
57264;DHT22;43113;53.124;6.092;2022-09-03T04:48:42;14.80;93.70
57264;DHT22;43113;53.124;6.092;2022-09-03T04:51:12;14.80;93.80
57264;DHT22;43113;53.124;6.092;2022-09-03T04:53:44;14.70;93.60
57264;DHT22;43113;53.124;6.092;2022-09-03T04:56:22;14.70;93.90
57264;DHT22;43113;53.124;6.092;2022-09-03T04:58:54;14.70;93.70
57264;DHT22;43113;53.124;6.092;2022-09-03T05:01:21;14.60;94.30
57264;DHT22;43113;53.124;6.092;2022-09-03T05:03:47;14.60;94.10
57264;DHT22;43113;53.124;6.092;2022-09-03T05:06:13;14.60;94.10
57264;DHT22;43113;53.124;6.092;2022-09-03T05:08:42;14.50;94.30
57264;DHT22;43113;53.124;6.092;2022-09-03T05:11:08;14.50;94.40
57264;DHT22;43113;53.124;6.092;2022-09-03T05:13:35;14.40;94.70
57264;DHT22;43113;53.124;6.092;2022-09-03T05:16:07;14.50;94.60
57264;DHT22;43113;53.124;6.092;2022-09-03T05:18:36;14.50;94.70
57264;DHT22;43113;53.124;6.092;2022-09-03T05:21:04;14.50;94.70
57264;DHT22;43113;53.124;6.092;2022-09-03T05:23:30;14.50;94.80
57264;DHT22;43113;53.124;6.092;2022-09-03T05:26:02;14.50;94.80
57264;DHT22;43113;53.124;6.092;2022-09-03T05:28:29;14.60;94.90
57264;DHT22;43113;53.124;6.092;2022-09-03T05:31:14;14.60;94.80
57264;DHT22;43113;53.124;6.092;2022-09-03T05:33:45;14.60;94.90
57264;DHT22;43113;53.124;6.092;2022-09-03T05:36:13;14.70;94.70
57264;DHT22;43113;53.124;6.092;2022-09-03T05:38:41;14.70;94.80
57264;DHT22;43113;53.124;6.092;2022-09-03T05:41:09;14.70;94.60
57264;DHT22;43113;53.124;6.092;2022-09-03T05:43:35;14.80;94.40
57264;DHT22;43113;53.124;6.092;2022-09-03T05:46:03;14.90;94.60
57264;DHT22;43113;53.124;6.092;2022-09-03T05:48:30;14.90;94.60
57264;DHT22;43113;53.124;6.092;2022-09-03T05:51:10;15.00;94.40
57264;DHT22;43113;53.124;6.092;2022-09-03T05:53:39;15.10;94.60
57264;DHT22;43113;53.124;6.092;2022-09-03T05:56:08;15.10;94.30
57264;DHT22;43113;53.124;6.092;2022-09-03T05:58:41;15.20;94.50
57264;DHT22;43113;53.124;6.092;2022-09-03T06:01:14;15.30;94.70
57264;DHT22;43113;53.124;6.092;2022-09-03T06:03:41;15.30;94.00
57264;DHT22;43113;53.124;6.092;2022-09-03T06:06:07;15.40;93.80
57264;DHT22;43113;53.124;6.092;2022-09-03T06:08:34;15.50;93.80
57264;DHT22;43113;53.124;6.092;2022-09-03T06:11:01;15.60;93.70
57264;DHT22;43113;53.124;6.092;2022-09-03T06:13:29;15.80;93.50
57264;DHT22;43113;53.124;6.092;2022-09-03T06:15:56;15.90;93.50
57264;DHT22;43113;53.124;6.092;2022-09-03T06:18:23;16.00;93.20
57264;DHT22;43113;53.124;6.092;2022-09-03T06:20:57;16.20;92.80
57264;DHT22;43113;53.124;6.092;2022-09-03T06:23:23;16.30;92.60
57264;DHT22;43113;53.124;6.092;2022-09-03T06:26:08;16.50;92.10
57264;DHT22;43113;53.124;6.092;2022-09-03T06:28:36;17.20;91.80
57264;DHT22;43113;53.124;6.092;2022-09-03T06:31:05;17.50;90.60
57264;DHT22;43113;53.124;6.092;2022-09-03T06:33:32;18.60;89.70
57264;DHT22;43113;53.124;6.092;2022-09-03T06:35:59;19.60;87.20
57264;DHT22;43113;53.124;6.092;2022-09-03T06:38:26;20.90;83.60
57264;DHT22;43113;53.124;6.092;2022-09-03T06:41:01;21.90;81.60
57264;DHT22;43113;53.124;6.092;2022-09-03T06:43:29;22.80;79.60
57264;DHT22;43113;53.124;6.092;2022-09-03T06:46:04;23.60;76.70
57264;DHT22;43113;53.124;6.092;2022-09-03T06:48:32;23.50;75.90
57264;DHT22;43113;53.124;6.092;2022-09-03T06:50:59;24.20;74.60
57264;DHT22;43113;53.124;6.092;2022-09-03T06:53:27;25.00;74.00
57264;DHT22;43113;53.124;6.092;2022-09-03T06:55:55;25.00;72.80
57264;DHT22;43113;53.124;6.092;2022-09-03T06:58:21;24.70;71.70
57264;DHT22;43113;53.124;6.092;2022-09-03T07:00:47;24.60;72.40
57264;DHT22;43113;53.124;6.092;2022-09-03T07:03:14;24.60;72.80
57264;DHT22;43113;53.124;6.092;2022-09-03T07:05:42;24.40;72.00
57264;DHT22;43113;53.124;6.092;2022-09-03T07:08:09;24.10;71.30
57264;DHT22;43113;53.124;6.092;2022-09-03T07:10:38;24.60;72.30
57264;DHT22;43113;53.124;6.092;2022-09-03T07:13:04;24.90;71.80
57264;DHT22;43113;53.124;6.092;2022-09-03T07:15:33;25.90;70.70
57264;DHT22;43113;53.124;6.092;2022-09-03T07:17:58;25.90;70.30
57264;DHT22;43113;53.124;6.092;2022-09-03T07:20:25;26.40;70.20
57264;DHT22;43113;53.124;6.092;2022-09-03T07:22:53;26.70;68.20
57264;DHT22;43113;53.124;6.092;2022-09-03T07:25:19;26.80;68.00
57264;DHT22;43113;53.124;6.092;2022-09-03T07:27:46;26.70;68.90
57264;DHT22;43113;53.124;6.092;2022-09-03T07:30:16;26.90;68.30
57264;DHT22;43113;53.124;6.092;2022-09-03T07:32:41;27.20;67.90
57264;DHT22;43113;53.124;6.092;2022-09-03T07:35:10;27.70;68.20
57264;DHT22;43113;53.124;6.092;2022-09-03T07:37:36;27.80;66.90
57264;DHT22;43113;53.124;6.092;2022-09-03T07:40:03;26.70;66.80
57264;DHT22;43113;53.124;6.092;2022-09-03T07:42:28;27.50;69.50
57264;DHT22;43113;53.124;6.092;2022-09-03T07:44:55;27.30;65.90
57264;DHT22;43113;53.124;6.092;2022-09-03T07:47:21;28.00;66.90
57264;DHT22;43113;53.124;6.092;2022-09-03T07:49:47;27.60;66.90
57264;DHT22;43113;53.124;6.092;2022-09-03T07:52:13;28.20;67.20
57264;DHT22;43113;53.124;6.092;2022-09-03T07:54:38;28.30;65.00
57264;DHT22;43113;53.124;6.092;2022-09-03T07:57:05;28.60;67.10
57264;DHT22;43113;53.124;6.092;2022-09-03T07:59:31;29.00;65.40
57264;DHT22;43113;53.124;6.092;2022-09-03T08:01:57;28.90;63.60
57264;DHT22;43113;53.124;6.092;2022-09-03T08:04:23;28.40;64.70
57264;DHT22;43113;53.124;6.092;2022-09-03T08:06:49;28.70;64.60
57264;DHT22;43113;53.124;6.092;2022-09-03T08:09:19;28.70;65.00
57264;DHT22;43113;53.124;6.092;2022-09-03T08:11:45;28.50;65.10
57264;DHT22;43113;53.124;6.092;2022-09-03T08:14:12;28.40;64.40
57264;DHT22;43113;53.124;6.092;2022-09-03T08:16:41;29.10;65.60
57264;DHT22;43113;53.124;6.092;2022-09-03T08:19:07;28.90;63.60
57264;DHT22;43113;53.124;6.092;2022-09-03T08:21:33;29.10;64.20
57264;DHT22;43113;53.124;6.092;2022-09-03T08:23:59;29.60;64.20
57264;DHT22;43113;53.124;6.092;2022-09-03T08:26:34;29.40;64.50
57264;DHT22;43113;53.124;6.092;2022-09-03T08:29:01;29.80;63.80
57264;DHT22;43113;53.124;6.092;2022-09-03T08:31:28;29.80;63.20
57264;DHT22;43113;53.124;6.092;2022-09-03T08:33:55;29.40;64.50
57264;DHT22;43113;53.124;6.092;2022-09-03T08:36:26;29.50;63.60
57264;DHT22;43113;53.124;6.092;2022-09-03T08:38:54;30.50;63.90
57264;DHT22;43113;53.124;6.092;2022-09-03T08:44:32;31.50;62.00
57264;DHT22;43113;53.124;6.092;2022-09-03T08:52:36;29.90;61.30
57264;DHT22;43113;53.124;6.092;2022-09-03T08:55:30;29.80;63.40
57264;DHT22;43113;53.124;6.092;2022-09-03T08:58:09;30.00;63.10
57264;DHT22;43113;53.124;6.092;2022-09-03T09:00:51;30.60;62.20
57264;DHT22;43113;53.124;6.092;2022-09-03T09:03:41;31.30;62.70
57264;DHT22;43113;53.124;6.092;2022-09-03T09:06:18;31.40;62.00
57264;DHT22;43113;53.124;6.092;2022-09-03T09:09:10;31.90;61.40
57264;DHT22;43113;53.124;6.092;2022-09-03T09:22:08;33.00;61.50
57264;DHT22;43113;53.124;6.092;2022-09-03T09:24:39;33.10;59.90
57264;DHT22;43113;53.124;6.092;2022-09-03T09:27:06;32.40;60.50
57264;DHT22;43113;53.124;6.092;2022-09-03T09:29:37;32.10;61.60
57264;DHT22;43113;53.124;6.092;2022-09-03T09:32:03;32.00;61.10
57264;DHT22;43113;53.124;6.092;2022-09-03T09:34:36;31.90;59.80
57264;DHT22;43113;53.124;6.092;2022-09-03T09:37:05;31.70;61.50
57264;DHT22;43113;53.124;6.092;2022-09-03T09:39:32;31.50;62.00
57264;DHT22;43113;53.124;6.092;2022-09-03T09:42:06;32.00;61.30
57264;DHT22;43113;53.124;6.092;2022-09-03T09:44:41;31.70;60.60
57264;DHT22;43113;53.124;6.092;2022-09-03T09:47:15;32.10;61.70
57264;DHT22;43113;53.124;6.092;2022-09-03T09:52:13;32.40;59.60
57264;DHT22;43113;53.124;6.092;2022-09-03T09:54:41;32.20;60.20
57264;DHT22;43113;53.124;6.092;2022-09-03T09:57:17;32.00;60.10
57264;DHT22;43113;53.124;6.092;2022-09-03T09:59:45;31.70;60.20
57264;DHT22;43113;53.124;6.092;2022-09-03T10:02:16;31.00;61.80
57264;DHT22;43113;53.124;6.092;2022-09-03T10:04:44;31.90;61.10
57264;DHT22;43113;53.124;6.092;2022-09-03T10:07:29;31.60;61.10
57264;DHT22;43113;53.124;6.092;2022-09-03T10:10:07;31.90;61.90
57264;DHT22;43113;53.124;6.092;2022-09-03T10:18:41;32.10;61.80
57264;DHT22;43113;53.124;6.092;2022-09-03T10:26:25;33.90;59.40
57264;DHT22;43113;53.124;6.092;2022-09-03T10:28:58;33.90;59.40
57264;DHT22;43113;53.124;6.092;2022-09-03T10:32:21;33.30;59.70
57264;DHT22;43113;53.124;6.092;2022-09-03T10:37:41;33.60;60.20
57264;DHT22;43113;53.124;6.092;2022-09-03T10:45:56;33.90;59.50
57264;DHT22;43113;53.124;6.092;2022-09-03T10:48:47;33.10;59.40
57264;DHT22;43113;53.124;6.092;2022-09-03T10:51:26;33.10;58.80
57264;DHT22;43113;53.124;6.092;2022-09-03T10:56:35;32.90;59.00
57264;DHT22;43113;53.124;6.092;2022-09-03T10:59:30;32.70;59.50
57264;DHT22;43113;53.124;6.092;2022-09-03T11:05:16;33.20;59.10
57264;DHT22;43113;53.124;6.092;2022-09-03T11:10:33;32.30;57.40
57264;DHT22;43113;53.124;6.092;2022-09-03T11:13:19;31.50;58.70
57264;DHT22;43113;53.124;6.092;2022-09-03T11:15:59;31.60;59.60
57264;DHT22;43113;53.124;6.092;2022-09-03T11:21:12;32.00;59.80
57264;DHT22;43113;53.124;6.092;2022-09-03T11:23:52;32.40;59.20
57264;DHT22;43113;53.124;6.092;2022-09-03T11:26:23;32.30;58.30
57264;DHT22;43113;53.124;6.092;2022-09-03T11:28:57;32.80;58.80
57264;DHT22;43113;53.124;6.092;2022-09-03T11:33:59;32.90;57.40
57264;DHT22;43113;53.124;6.092;2022-09-03T11:36:34;33.40;59.20
57264;DHT22;43113;53.124;6.092;2022-09-03T11:39:21;33.00;58.40
57264;DHT22;43113;53.124;6.092;2022-09-03T11:42:03;32.40;56.70
57264;DHT22;43113;53.124;6.092;2022-09-03T11:44:37;32.00;57.50
57264;DHT22;43113;53.124;6.092;2022-09-03T11:47:20;32.00;57.60
57264;DHT22;43113;53.124;6.092;2022-09-03T11:49:52;32.80;59.30
57264;DHT22;43113;53.124;6.092;2022-09-03T11:52:25;32.70;57.80
57264;DHT22;43113;53.124;6.092;2022-09-03T11:54:52;32.20;58.80
57264;DHT22;43113;53.124;6.092;2022-09-03T11:57:31;32.20;57.10
57264;DHT22;43113;53.124;6.092;2022-09-03T12:00:10;31.80;57.90
57264;DHT22;43113;53.124;6.092;2022-09-03T12:02:46;31.70;56.90
57264;DHT22;43113;53.124;6.092;2022-09-03T12:13:32;31.20;58.40
57264;DHT22;43113;53.124;6.092;2022-09-03T12:19:36;31.10;59.00
57264;DHT22;43113;53.124;6.092;2022-09-03T12:22:03;30.40;58.00
57264;DHT22;43113;53.124;6.092;2022-09-03T12:24:30;30.20;57.90
57264;DHT22;43113;53.124;6.092;2022-09-03T12:27:02;30.20;58.50
57264;DHT22;43113;53.124;6.092;2022-09-03T12:29:30;30.00;59.60
57264;DHT22;43113;53.124;6.092;2022-09-03T12:32:05;30.00;58.40
57264;DHT22;43113;53.124;6.092;2022-09-03T12:34:31;30.00;58.60
57264;DHT22;43113;53.124;6.092;2022-09-03T12:36:57;29.70;58.30
57264;DHT22;43113;53.124;6.092;2022-09-03T12:39:24;30.10;58.80
57264;DHT22;43113;53.124;6.092;2022-09-03T12:47:23;29.90;58.40
57264;DHT22;43113;53.124;6.092;2022-09-03T12:49:56;29.80;57.70
57264;DHT22;43113;53.124;6.092;2022-09-03T12:52:34;29.70;58.40
57264;DHT22;43113;53.124;6.092;2022-09-03T12:57:45;29.60;58.40
57264;DHT22;43113;53.124;6.092;2022-09-03T13:00:15;29.70;59.50
57264;DHT22;43113;53.124;6.092;2022-09-03T13:02:51;29.50;57.70
57264;DHT22;43113;53.124;6.092;2022-09-03T13:05:22;29.30;58.80
57264;DHT22;43113;53.124;6.092;2022-09-03T13:07:52;28.90;58.60
57264;DHT22;43113;53.124;6.092;2022-09-03T13:10:26;29.10;58.30
57264;DHT22;43113;53.124;6.092;2022-09-03T13:13:01;29.50;59.80
57264;DHT22;43113;53.124;6.092;2022-09-03T13:15:29;29.30;58.90
57264;DHT22;43113;53.124;6.092;2022-09-03T13:18:11;29.30;58.30
57264;DHT22;43113;53.124;6.092;2022-09-03T13:21:02;29.20;57.70
57264;DHT22;43113;53.124;6.092;2022-09-03T13:26:31;29.50;58.70
57264;DHT22;43113;53.124;6.092;2022-09-03T13:29:11;29.60;58.80
57264;DHT22;43113;53.124;6.092;2022-09-03T13:31:49;29.60;57.60
57264;DHT22;43113;53.124;6.092;2022-09-03T13:34:38;29.30;57.90
57264;DHT22;43113;53.124;6.092;2022-09-03T13:39:56;29.60;58.90
57264;DHT22;43113;53.124;6.092;2022-09-03T13:42:32;29.60;57.80
57264;DHT22;43113;53.124;6.092;2022-09-03T13:45:20;29.60;58.80
57264;DHT22;43113;53.124;6.092;2022-09-03T13:51:18;29.10;60.90
57264;DHT22;43113;53.124;6.092;2022-09-03T13:56:45;29.50;59.90
57264;DHT22;43113;53.124;6.092;2022-09-03T13:59:19;29.30;59.40
57264;DHT22;43113;53.124;6.092;2022-09-03T14:01:59;29.00;58.70
57264;DHT22;43113;53.124;6.092;2022-09-03T14:13:15;28.50;59.70
57264;DHT22;43113;53.124;6.092;2022-09-03T14:15:51;28.50;59.40
57264;DHT22;43113;53.124;6.092;2022-09-03T14:21:23;28.30;59.80
57264;DHT22;43113;53.124;6.092;2022-09-03T14:23:54;28.40;60.40
57264;DHT22;43113;53.124;6.092;2022-09-03T14:26:30;28.40;60.80
57264;DHT22;43113;53.124;6.092;2022-09-03T14:29:03;28.40;59.50
57264;DHT22;43113;53.124;6.092;2022-09-03T14:31:54;28.50;60.20
57264;DHT22;43113;53.124;6.092;2022-09-03T14:34:44;28.40;60.80
57264;DHT22;43113;53.124;6.092;2022-09-03T14:40:26;28.10;59.50
57264;DHT22;43113;53.124;6.092;2022-09-03T14:43:17;28.00;60.00
57264;DHT22;43113;53.124;6.092;2022-09-03T14:48:51;27.90;59.60
57264;DHT22;43113;53.124;6.092;2022-09-03T14:54:22;27.60;60.50
57264;DHT22;43113;53.124;6.092;2022-09-03T14:59:58;27.70;61.50
57264;DHT22;43113;53.124;6.092;2022-09-03T15:10:58;27.50;60.80
57264;DHT22;43113;53.124;6.092;2022-09-03T15:13:47;27.60;62.20
57264;DHT22;43113;53.124;6.092;2022-09-03T15:22:05;27.40;61.40
57264;DHT22;43113;53.124;6.092;2022-09-03T15:24:57;27.20;61.40
57264;DHT22;43113;53.124;6.092;2022-09-03T15:27:38;27.10;61.70
57264;DHT22;43113;53.124;6.092;2022-09-03T15:30:18;27.00;60.90
57264;DHT22;43113;53.124;6.092;2022-09-03T15:37:54;27.00;62.20
57264;DHT22;43113;53.124;6.092;2022-09-03T15:43:26;26.80;61.80
57264;DHT22;43113;53.124;6.092;2022-09-03T15:45:59;26.90;62.50
57264;DHT22;43113;53.124;6.092;2022-09-03T15:48:39;26.70;61.60
57264;DHT22;43113;53.124;6.092;2022-09-03T15:54:23;26.50;63.60
57264;DHT22;43113;53.124;6.092;2022-09-03T15:57:16;26.50;62.50
57264;DHT22;43113;53.124;6.092;2022-09-03T15:59:54;26.40;62.50
57264;DHT22;43113;53.124;6.092;2022-09-03T16:05:45;26.50;64.40
57264;DHT22;43113;53.124;6.092;2022-09-03T16:08:18;26.50;62.80
57264;DHT22;43113;53.124;6.092;2022-09-03T16:14:02;26.50;62.80
57264;DHT22;43113;53.124;6.092;2022-09-03T16:16:53;26.50;63.30
57264;DHT22;43113;53.124;6.092;2022-09-03T16:22:28;26.30;64.20
57264;DHT22;43113;53.124;6.092;2022-09-03T16:25:06;26.30;65.00
57264;DHT22;43113;53.124;6.092;2022-09-03T16:44:41;25.30;65.70
57264;DHT22;43113;53.124;6.092;2022-09-03T16:55:36;25.00;66.10
57264;DHT22;43113;53.124;6.092;2022-09-03T17:04:09;24.60;67.60
57264;DHT22;43113;53.124;6.092;2022-09-03T17:14:56;24.20;69.90
57264;DHT22;43113;53.124;6.092;2022-09-03T17:18:00;24.10;68.50
57264;DHT22;43113;53.124;6.092;2022-09-03T17:26:10;23.80;70.40
57264;DHT22;43113;53.124;6.092;2022-09-03T17:48:51;22.60;74.40
57264;DHT22;43113;53.124;6.092;2022-09-03T17:53:51;22.30;75.90
57264;DHT22;43113;53.124;6.092;2022-09-03T17:56:27;22.20;76.00
57264;DHT22;43113;53.124;6.092;2022-09-03T17:59:22;22.00;76.00
57264;DHT22;43113;53.124;6.092;2022-09-03T18:01:57;21.90;76.50
57264;DHT22;43113;53.124;6.092;2022-09-03T18:04:47;21.80;76.70
57264;DHT22;43113;53.124;6.092;2022-09-03T18:12:58;21.40;77.80
57264;DHT22;43113;53.124;6.092;2022-09-03T18:15:35;21.30;78.00
57264;DHT22;43113;53.124;6.092;2022-09-03T18:18:15;21.20;78.50
57264;DHT22;43113;53.124;6.092;2022-09-03T18:20:50;21.00;78.30
57264;DHT22;43113;53.124;6.092;2022-09-03T18:27:20;20.80;79.10
57264;DHT22;43113;53.124;6.092;2022-09-03T18:30:10;20.70;79.90
57264;DHT22;43113;53.124;6.092;2022-09-03T18:32:56;20.60;79.80
57264;DHT22;43113;53.124;6.092;2022-09-03T18:35:43;20.50;80.60
57264;DHT22;43113;53.124;6.092;2022-09-03T18:38:33;20.30;80.60
57264;DHT22;43113;53.124;6.092;2022-09-03T18:41:43;20.20;80.60
57264;DHT22;43113;53.124;6.092;2022-09-03T18:48:40;20.00;82.00
57264;DHT22;43113;53.124;6.092;2022-09-03T18:56:56;19.80;82.50
57264;DHT22;43113;53.124;6.092;2022-09-03T19:03:15;19.70;82.70
57264;DHT22;43113;53.124;6.092;2022-09-03T19:12:37;19.50;84.10
57264;DHT22;43113;53.124;6.092;2022-09-03T19:15:38;19.40;84.50
57264;DHT22;43113;53.124;6.092;2022-09-03T19:21:55;19.30;84.30
57264;DHT22;43113;53.124;6.092;2022-09-03T19:24:39;19.20;84.70
57264;DHT22;43113;53.124;6.092;2022-09-03T19:27:36;19.10;85.20
57264;DHT22;43113;53.124;6.092;2022-09-03T19:46:00;18.50;86.60
57264;DHT22;43113;53.124;6.092;2022-09-03T19:52:12;18.40;87.20
57264;DHT22;43113;53.124;6.092;2022-09-03T19:54:59;18.40;87.40
57264;DHT22;43113;53.124;6.092;2022-09-03T19:57:46;18.30;88.00
57264;DHT22;43113;53.124;6.092;2022-09-03T20:00:32;18.30;87.90
57264;DHT22;43113;53.124;6.092;2022-09-03T20:03:17;18.20;87.80
57264;DHT22;43113;53.124;6.092;2022-09-03T20:06:03;18.20;88.00
57264;DHT22;43113;53.124;6.092;2022-09-03T20:08:50;18.10;88.20
57264;DHT22;43113;53.124;6.092;2022-09-03T20:11:36;18.00;88.30
57264;DHT22;43113;53.124;6.092;2022-09-03T20:14:13;18.00;88.60
57264;DHT22;43113;53.124;6.092;2022-09-03T20:16:55;17.90;88.90
57264;DHT22;43113;53.124;6.092;2022-09-03T20:22:14;17.80;89.30
57264;DHT22;43113;53.124;6.092;2022-09-03T20:25:05;17.70;89.30
57264;DHT22;43113;53.124;6.092;2022-09-03T20:28:03;17.70;90.00
57264;DHT22;43113;53.124;6.092;2022-09-03T20:59:19;17.40;90.40
57264;DHT22;43113;53.124;6.092;2022-09-03T21:05:02;17.30;90.30
57264;DHT22;43113;53.124;6.092;2022-09-03T21:13:29;17.50;89.90
57264;DHT22;43113;53.124;6.092;2022-09-03T21:18:57;17.50;89.60
57264;DHT22;43113;53.124;6.092;2022-09-03T21:24:12;17.50;89.20
57264;DHT22;43113;53.124;6.092;2022-09-03T21:26:40;17.60;88.60
57264;DHT22;43113;53.124;6.092;2022-09-03T21:29:18;17.50;89.30
57264;DHT22;43113;53.124;6.092;2022-09-03T21:32:03;17.50;88.90
57264;DHT22;43113;53.124;6.092;2022-09-03T21:34:38;17.50;88.70
57264;DHT22;43113;53.124;6.092;2022-09-03T21:37:09;17.40;88.60
57264;DHT22;43113;53.124;6.092;2022-09-03T21:39:42;17.40;88.60
57264;DHT22;43113;53.124;6.092;2022-09-03T21:45:06;17.30;89.20
57264;DHT22;43113;53.124;6.092;2022-09-03T21:47:37;17.30;88.50
57264;DHT22;43113;53.124;6.092;2022-09-03T21:50:40;17.30;88.90
57264;DHT22;43113;53.124;6.092;2022-09-03T21:53:01;17.40;88.50
57264;DHT22;43113;53.124;6.092;2022-09-03T21:55:45;17.30;88.30
57264;DHT22;43113;53.124;6.092;2022-09-03T21:58:25;17.40;88.40
57264;DHT22;43113;53.124;6.092;2022-09-03T22:00:56;17.40;87.80
57264;DHT22;43113;53.124;6.092;2022-09-03T22:03:23;17.30;87.90
57264;DHT22;43113;53.124;6.092;2022-09-03T22:05:57;17.30;88.00
57264;DHT22;43113;53.124;6.092;2022-09-03T22:11:12;17.20;87.90
57264;DHT22;43113;53.124;6.092;2022-09-03T22:16:48;17.20;87.60
57264;DHT22;43113;53.124;6.092;2022-09-03T22:19:15;17.30;87.50
57264;DHT22;43113;53.124;6.092;2022-09-03T22:21:54;17.30;87.50
57264;DHT22;43113;53.124;6.092;2022-09-03T22:27:08;17.30;87.20